Time;durP1;ratioP1;P1;durP2;ratioP2;P2;SDS_P1;SDS_P2;PMS_P1;PMS_P2;Temp;Humidity;BMP_temperature;BMP_pressure;BME280_temperature;BME280_humidity;BME280_pressure;Samples;Min_cycle;Max_cycle;Signal;HPM_P1;HPM_P2
2021/07/05 00:00:40;;;;;;;22.67;14.60;;;;;;;15.26;100.00;100831.44;3589695;39;20043;-62
2021/07/05 00:03:08;;;;;;;19.40;13.68;;;;;;;15.24;100.00;100835.16;3595093;40;20040;-62
2021/07/05 00:05:35;;;;;;;16.67;13.10;;;;;;;15.30;100.00;100833.66;3597388;40;20040;-62
2021/07/05 00:08:01;;;;;;;18.67;13.45;;;;;;;15.21;100.00;100827.38;3594805;39;20073;-62
2021/07/05 00:10:29;;;;;;;22.42;14.55;;;;;;;15.18;100.00;100825.00;3600370;39;20048;-62
2021/07/05 00:12:56;;;;;;;27.35;16.08;;;;;;;15.05;100.00;100839.03;3601159;40;20044;-62
2021/07/05 00:15:25;;;;;;;24.30;15.38;;;;;;;14.94;100.00;100831.19;3600533;39;20068;-61
2021/07/05 00:17:54;;;;;;;23.92;16.23;;;;;;;14.98;100.00;100824.44;3599364;39;20311;-62
2021/07/05 00:20:22;;;;;;;32.38;16.50;;;;;;;14.96;100.00;100836.44;3598718;39;20353;-62
2021/07/05 00:22:50;;;;;;;23.05;14.43;;;;;;;14.89;100.00;100826.28;3600656;40;20042;-62
2021/07/05 00:25:17;;;;;;;21.50;15.63;;;;;;;14.87;100.00;100830.19;3600810;39;20425;-62
2021/07/05 00:27:44;;;;;;;25.50;15.77;;;;;;;14.84;100.00;100828.66;3600758;40;20040;-62
2021/07/05 00:30:11;;;;;;;24.17;16.25;;;;;;;14.76;100.00;100822.34;3600825;39;20449;-63
2021/07/05 00:32:38;;;;;;;26.73;15.70;;;;;;;14.81;100.00;100819.97;3596370;39;20028;-62
2021/07/05 00:35:05;;;;;;;25.30;15.65;;;;;;;14.85;100.00;100822.19;3600958;39;20050;-62
2021/07/05 00:37:33;;;;;;;22.63;15.57;;;;;;;14.78;100.00;100813.06;3595347;39;20085;-62
2021/07/05 00:40:00;;;;;;;24.13;15.55;;;;;;;14.76;100.00;100808.81;3601159;40;20029;-62
2021/07/05 00:42:26;;;;;;;23.23;15.57;;;;;;;14.71;100.00;100807.44;3599492;39;20096;-61
2021/07/05 00:44:53;;;;;;;19.35;13.88;;;;;;;14.88;100.00;100812.91;3600288;39;20388;-62
2021/07/05 00:47:20;;;;;;;20.95;14.00;;;;;;;14.87;100.00;100816.63;3600871;39;20054;-62
2021/07/05 00:49:46;;;;;;;22.30;15.63;;;;;;;14.99;100.00;100804.47;3600945;40;20060;-62
2021/07/05 00:52:13;;;;;;;28.17;15.43;;;;;;;14.87;100.00;100808.50;3600667;40;20383;-62
2021/07/05 00:54:41;;;;;;;21.42;15.27;;;;;;;15.00;100.00;100803.44;3600951;40;20036;-63
2021/07/05 00:57:19;;;;;;;22.80;14.77;;;;;;;15.04;100.00;100807.50;3600246;39;20036;-62
2021/07/05 00:59:47;;;;;;;28.63;15.55;;;;;;;15.08;100.00;100808.03;3598136;40;20363;-62
2021/07/05 01:02:14;;;;;;;26.50;16.30;;;;;;;15.11;100.00;100820.41;3599537;39;20047;-63
2021/07/05 01:04:40;;;;;;;32.05;17.33;;;;;;;15.24;100.00;100815.34;3601001;39;20100;-62
2021/07/05 01:07:07;;;;;;;30.75;17.17;;;;;;;15.26;100.00;100816.00;3600146;39;20384;-62
2021/07/05 01:09:33;;;;;;;26.17;17.38;;;;;;;15.21;100.00;100821.09;3600632;40;20079;-62
2021/07/05 01:12:01;;;;;;;31.38;18.63;;;;;;;15.21;100.00;100812.97;3600415;39;20032;-62
2021/07/05 01:14:27;;;;;;;32.50;20.92;;;;;;;15.19;100.00;100812.28;3599866;39;20080;-62
2021/07/05 01:16:54;;;;;;;32.15;21.80;;;;;;;15.19;100.00;100809.56;3600640;40;20032;-62
2021/07/05 01:19:20;;;;;;;32.70;21.52;;;;;;;15.29;100.00;100810.25;3600175;39;20106;-63
2021/07/05 01:21:48;;;;;;;36.85;22.63;;;;;;;15.36;100.00;100797.72;3598135;39;20040;-62
2021/07/05 01:24:15;;;;;;;31.08;21.50;;;;;;;15.40;100.00;100788.22;3598648;40;20056;-62
2021/07/05 01:26:41;;;;;;;35.63;22.15;;;;;;;15.46;100.00;100791.25;3598619;40;20028;-63
2021/07/05 01:29:08;;;;;;;37.35;23.35;;;;;;;15.53;100.00;100785.00;3598643;40;20024;-63
2021/07/05 01:31:35;;;;;;;34.22;22.75;;;;;;;15.53;100.00;100770.59;3594948;40;20040;-63
2021/07/05 01:34:01;;;;;;;37.90;23.10;;;;;;;15.65;100.00;100771.94;3597456;39;20088;-63
2021/07/05 01:36:28;;;;;;;37.25;23.48;;;;;;;15.62;100.00;100766.88;3597160;39;20064;-63
2021/07/05 01:38:56;;;;;;;30.63;21.88;;;;;;;15.61;100.00;100754.31;3598115;39;20044;-63
2021/07/05 01:41:22;;;;;;;34.78;23.77;;;;;;;15.59;100.00;100754.47;3598369;39;20039;-63
2021/07/05 01:43:49;;;;;;;39.47;23.67;;;;;;;15.67;100.00;100748.19;3598794;39;20036;-64
2021/07/05 01:46:16;;;;;;;38.55;23.23;;;;;;;15.67;100.00;100750.91;3597937;39;20044;-63
2021/07/05 01:48:43;;;;;;;33.08;22.02;;;;;;;15.66;100.00;100740.22;3598106;40;20036;-63
2021/07/05 01:51:10;;;;;;;35.75;22.38;;;;;;;15.71;100.00;100738.69;3598251;40;20371;-64
2021/07/05 01:53:36;;;;;;;33.30;21.83;;;;;;;15.64;100.00;100736.84;3598326;40;20040;-64
2021/07/05 01:56:04;;;;;;;34.65;21.08;;;;;;;15.68;100.00;100733.63;3594470;39;20043;-64
2021/07/05 01:58:31;;;;;;;35.67;22.75;;;;;;;15.66;100.00;100732.91;3596596;39;20363;-64
2021/07/05 02:00:57;;;;;;;35.33;23.48;;;;;;;15.62;100.00;100720.75;3597433;40;20100;-63
2021/07/05 02:03:24;;;;;;;38.78;22.75;;;;;;;15.73;100.00;100722.25;3598512;39;20284;-63
2021/07/05 02:05:51;;;;;;;32.03;20.67;;;;;;;15.61;100.00;100726.34;3597977;39;20396;-64
2021/07/05 02:08:19;;;;;;;48.65;23.30;;;;;;;15.66;100.00;100724.78;3601960;39;20038;-63
2021/07/05 02:10:46;;;;;;;51.13;25.35;;;;;;;15.77;100.00;100727.13;3598423;40;20036;-63
2021/07/05 02:13:17;;;;;;;42.22;23.13;;;;;;;15.77;100.00;100729.03;3598444;40;20396;-63
2021/07/05 02:15:45;;;;;;;36.55;21.55;;;;;;;15.72;100.00;100734.97;3598394;39;20028;-64
2021/07/05 02:18:12;;;;;;;30.48;20.00;;;;;;;15.66;100.00;100729.38;3595660;39;20036;-63
2021/07/05 02:20:38;;;;;;;31.80;19.20;;;;;;;15.67;100.00;100734.63;3598274;39;20064;-63
2021/07/05 02:23:06;;;;;;;29.73;20.25;;;;;;;15.57;100.00;100732.09;3597591;39;20040;-63
2021/07/05 02:25:34;;;;;;;30.50;20.42;;;;;;;15.53;100.00;100729.91;3598125;39;20029;-63
2021/07/05 02:28:02;;;;;;;35.00;21.05;;;;;;;15.47;100.00;100731.44;3594841;40;20365;-63
2021/07/05 02:30:31;;;;;;;33.17;21.97;;;;;;;15.54;100.00;100743.28;3597414;39;20063;-63
2021/07/05 02:36:12;;;;;;;33.92;22.27;;;;;;;15.59;100.00;100740.06;3613993;22;20040;-63
2021/07/05 02:38:39;;;;;;;36.42;23.88;;;;;;;15.60;100.00;100749.91;3597001;39;20061;-63
2021/07/05 02:41:06;;;;;;;34.85;21.98;;;;;;;15.57;100.00;100750.25;3597651;39;20042;-63
2021/07/05 02:43:34;;;;;;;36.13;21.95;;;;;;;15.59;100.00;100750.91;3597084;39;20085;-63
2021/07/05 02:46:03;;;;;;;34.78;22.17;;;;;;;15.59;100.00;100751.78;3597642;39;20032;-62
2021/07/05 02:48:32;;;;;;;34.25;22.55;;;;;;;15.58;100.00;100744.63;3597780;39;20444;-63
2021/07/05 02:51:01;;;;;;;35.22;23.10;;;;;;;15.56;100.00;100745.81;3597639;39;20052;-63
2021/07/05 02:53:27;;;;;;;34.10;23.10;;;;;;;15.63;100.00;100749.53;3597728;39;20028;-63
2021/07/05 02:55:54;;;;;;;33.72;22.40;;;;;;;15.63;100.00;100741.41;3597141;39;20036;-63
2021/07/05 02:58:21;;;;;;;33.55;23.02;;;;;;;15.68;100.00;100744.47;3596009;39;20028;-64
2021/07/05 03:00:50;;;;;;;34.08;22.67;;;;;;;15.64;100.00;100737.69;3593098;39;20040;-63
2021/07/05 03:03:18;;;;;;;33.03;22.98;;;;;;;15.67;100.00;100733.78;3597737;39;20068;-63
2021/07/05 03:05:45;;;;;;;32.92;22.02;;;;;;;15.69;100.00;100732.56;3595804;39;20032;-62
2021/07/05 03:08:12;;;;;;;33.22;21.63;;;;;;;15.66;100.00;100742.94;3597288;39;20029;-63
2021/07/05 03:10:40;;;;;;;32.85;21.90;;;;;;;15.70;100.00;100747.00;3599820;39;20064;-63
2021/07/05 03:13:08;;;;;;;34.33;23.63;;;;;;;15.68;100.00;100749.03;3597347;39;20064;-62
2021/07/05 03:15:35;;;;;;;38.30;23.63;;;;;;;15.75;100.00;100745.47;3593448;39;20040;-63
2021/07/05 03:18:02;;;;;;;33.72;23.95;;;;;;;15.77;100.00;100754.28;3595700;39;20045;-64
2021/07/05 03:20:33;;;;;;;37.20;24.48;;;;;;;15.75;100.00;100756.31;3596662;39;20039;-63
2021/07/05 03:23:01;;;;;;;36.97;24.45;;;;;;;15.76;100.00;100752.56;3595331;39;20043;-63
2021/07/05 03:25:29;;;;;;;34.33;22.63;;;;;;;15.75;100.00;100756.31;3597174;39;20032;-63
2021/07/05 03:27:56;;;;;;;31.02;22.65;;;;;;;15.73;100.00;100760.22;3597561;39;20024;-63
2021/07/05 03:30:24;;;;;;;37.90;25.17;;;;;;;15.72;100.00;100756.69;3596557;39;20078;-63
2021/07/05 03:32:51;;;;;;;33.67;24.70;;;;;;;15.81;100.00;100759.38;3594481;39;20048;-63
2021/07/05 03:35:19;;;;;;;33.67;23.13;;;;;;;15.77;100.00;100753.44;3598010;39;20410;-63
2021/07/05 03:37:49;;;;;;;38.47;24.05;;;;;;;15.77;100.00;100754.28;3597309;39;20036;-63
2021/07/05 03:40:18;;;;;;;34.10;23.52;;;;;;;15.85;100.00;100753.44;3596646;39;20072;-63
2021/07/05 03:42:45;;;;;;;36.28;23.98;;;;;;;15.86;100.00;100748.88;3597025;39;20051;-63
2021/07/05 03:45:13;;;;;;;37.83;25.13;;;;;;;15.85;100.00;100758.03;3597776;39;20046;-63
2021/07/05 03:47:40;;;;;;;34.90;24.35;;;;;;;15.93;100.00;100755.31;3597627;39;20040;-63
2021/07/05 03:50:09;;;;;;;38.25;22.58;;;;;;;15.88;100.00;100749.53;3596949;39;20034;-64
2021/07/05 03:52:37;;;;;;;33.35;21.77;;;;;;;15.89;100.00;100760.22;3597350;39;20044;-64
2021/07/05 03:55:07;;;;;;;34.13;23.75;;;;;;;15.88;100.00;100752.25;3596876;39;20040;-63
2021/07/05 03:57:33;;;;;;;35.25;22.90;;;;;;;15.83;100.00;100757.38;3592962;39;20049;-63
2021/07/05 04:00:00;;;;;;;30.63;22.42;;;;;;;15.77;100.00;100748.00;3596687;39;20039;-63
2021/07/05 04:02:27;;;;;;;29.73;20.60;;;;;;;15.77;100.00;100759.69;3593536;39;20121;-64
2021/07/05 04:04:55;;;;;;;30.42;18.23;;;;;;;15.77;100.00;100759.69;3594550;39;20039;-63
2021/07/05 04:07:22;;;;;;;27.85;16.73;;;;;;;15.70;100.00;100758.69;3591860;39;20036;-64
2021/07/05 04:09:48;;;;;;;21.35;11.60;;;;;;;15.51;100.00;100764.50;3597483;40;20044;-63
2021/07/05 04:12:19;;;;;;;17.88;10.48;;;;;;;15.49;100.00;100777.34;3596967;39;20109;-64
2021/07/05 04:14:47;;;;;;;16.55;8.18;;;;;;;15.33;100.00;100778.25;3597678;39;20043;-65
2021/07/05 04:17:13;;;;;;;13.80;7.20;;;;;;;14.96;100.00;100782.25;3597128;39;20391;-64
2021/07/05 04:19:40;;;;;;;13.98;6.57;;;;;;;14.75;100.00;100785.44;3596407;39;20047;-64
2021/07/05 04:22:06;;;;;;;15.13;6.90;;;;;;;14.82;100.00;100771.03;3596644;39;20034;-65
2021/07/05 04:24:33;;;;;;;18.75;7.22;;;;;;;14.62;100.00;100778.63;3596211;39;20052;-64
2021/07/05 04:26:59;;;;;;;13.70;6.13;;;;;;;14.74;100.00;100764.75;3597257;39;20096;-64
2021/07/05 04:29:27;;;;;;;15.85;7.38;;;;;;;14.79;100.00;100770.53;3597487;39;20035;-65
2021/07/05 04:31:53;;;;;;;11.02;6.78;;;;;;;14.72;100.00;100770.34;3591079;39;20035;-65
2021/07/05 04:34:20;;;;;;;11.20;6.80;;;;;;;14.74;100.00;100772.88;3595023;39;20061;-64
2021/07/05 04:36:46;;;;;;;19.27;8.30;;;;;;;14.58;100.00;100757.44;3595963;39;20290;-65
2021/07/05 04:39:13;;;;;;;13.52;7.32;;;;;;;14.60;100.00;100764.34;3596841;39;20363;-65
2021/07/05 04:41:39;;;;;;;16.13;8.07;;;;;;;14.55;100.00;100767.56;3597460;39;20048;-65
2021/07/05 04:44:06;;;;;;;15.50;7.88;;;;;;;14.56;100.00;100771.13;3596702;39;20032;-66
2021/07/05 04:46:34;;;;;;;17.67;8.63;;;;;;;14.63;100.00;100771.34;3596731;39;20430;-66
2021/07/05 04:49:00;;;;;;;13.10;7.93;;;;;;;14.60;100.00;100767.06;3597126;39;20024;-66
2021/07/05 04:51:27;;;;;;;15.07;7.63;;;;;;;14.55;100.00;100774.84;3597034;39;20121;-65
2021/07/05 04:53:53;;;;;;;15.73;7.93;;;;;;;14.54;100.00;100778.56;3596809;39;20044;-65
2021/07/05 04:56:21;;;;;;;12.80;7.38;;;;;;;14.36;100.00;100770.53;3591829;39;20272;-66
2021/07/05 04:58:48;;;;;;;15.65;7.88;;;;;;;14.46;100.00;100767.72;3598342;39;20038;-66
2021/07/05 05:01:14;;;;;;;12.25;6.80;;;;;;;14.37;100.00;100766.84;3598657;39;20032;-66
2021/07/05 05:03:42;;;;;;;15.75;7.25;;;;;;;14.51;100.00;100760.78;3597952;39;20040;-66
2021/07/05 05:06:09;;;;;;;14.23;8.18;;;;;;;14.48;100.00;100754.84;3595392;39;20075;-65
2021/07/05 05:08:35;;;;;;;13.88;7.22;;;;;;;14.47;100.00;100758.56;3597646;39;20054;-66
2021/07/05 05:11:02;;;;;;;15.35;7.65;;;;;;;14.47;100.00;100750.44;3598373;39;20055;-65
2021/07/05 05:13:29;;;;;;;14.13;7.50;;;;;;;14.51;100.00;100770.78;3598495;39;20419;-65
2021/07/05 05:15:56;;;;;;;15.00;8.30;;;;;;;14.36;100.00;100778.66;3598462;39;20048;-66
2021/07/05 05:18:22;;;;;;;14.38;8.10;;;;;;;14.38;100.00;100773.94;3598367;39;20082;-65
2021/07/05 05:20:50;;;;;;;15.85;7.97;;;;;;;14.48;100.00;100762.97;3598336;39;20038;-65
2021/07/05 05:23:17;;;;;;;14.27;7.68;;;;;;;14.52;100.00;100753.50;3597829;39;20038;-65
2021/07/05 05:25:43;;;;;;;15.45;7.38;;;;;;;14.46;100.00;100751.47;3597697;39;20366;-65
2021/07/05 05:28:10;;;;;;;16.42;8.20;;;;;;;14.49;100.00;100754.69;3596669;39;20032;-64
2021/07/05 05:30:36;;;;;;;12.73;7.85;;;;;;;14.55;100.00;100754.03;3597727;40;20061;-65
2021/07/05 05:33:03;;;;;;;16.95;8.20;;;;;;;14.50;100.00;100753.69;3595861;39;20367;-64
2021/07/05 05:35:29;;;;;;;15.23;8.63;;;;;;;14.53;100.00;100749.78;3597100;39;20323;-65
2021/07/05 05:37:58;;;;;;;18.00;8.70;;;;;;;14.63;100.00;100736.97;3596451;39;20044;-64
2021/07/05 05:40:25;;;;;;;17.65;9.40;;;;;;;14.60;100.00;100750.81;3597649;39;20311;-64
2021/07/05 05:42:52;;;;;;;14.63;8.40;;;;;;;14.44;100.00;100751.63;3593155;40;20044;-64
2021/07/05 05:45:19;;;;;;;19.55;9.30;;;;;;;14.48;100.00;100746.72;3595239;39;20047;-63
2021/07/05 05:47:45;;;;;;;20.98;8.65;;;;;;;14.59;100.00;100746.44;3597371;39;20052;-64
2021/07/05 05:50:13;;;;;;;14.43;7.72;;;;;;;14.54;100.00;100737.94;3597961;39;20051;-65
2021/07/05 05:52:40;;;;;;;13.10;8.35;;;;;;;14.51;100.00;100738.28;3595546;39;20331;-64
2021/07/05 05:55:09;;;;;;;12.80;8.00;;;;;;;14.55;100.00;100742.34;3596890;39;20048;-64
2021/07/05 05:57:38;;;;;;;15.63;8.20;;;;;;;14.53;100.00;100747.94;3595930;39;20035;-63
2021/07/05 06:02:39;;;;;;;16.75;8.73;;;;;;;14.45;100.00;100752.47;3668312;22;20121;-63
2021/07/05 06:05:07;;;;;;;19.95;9.38;;;;;;;14.53;100.00;100755.19;3653484;22;20261;-63
2021/07/05 06:07:33;;;;;;;15.20;8.38;;;;;;;14.55;100.00;100761.31;3597358;39;20036;-63
2021/07/05 06:10:00;;;;;;;19.10;10.82;;;;;;;14.49;100.00;100761.97;3596564;39;20066;-63
2021/07/05 06:12:27;;;;;;;17.65;11.13;;;;;;;14.46;100.00;100762.31;3596431;39;20260;-63
2021/07/05 06:14:54;;;;;;;18.75;10.85;;;;;;;14.53;100.00;100771.44;3596120;39;20109;-64
2021/07/05 06:17:20;;;;;;;21.83;10.98;;;;;;;14.51;100.00;100757.22;3597552;39;20050;-64
2021/07/05 06:19:47;;;;;;;21.00;10.70;;;;;;;14.52;100.00;100758.94;3595619;39;20036;-63
2021/07/05 06:22:17;;;;;;;16.92;10.20;;;;;;;14.53;100.00;100758.78;3596840;39;20374;-63
2021/07/05 06:24:46;;;;;;;20.00;11.07;;;;;;;14.52;100.00;100761.63;3596538;39;20036;-63
2021/07/05 06:27:13;;;;;;;21.63;11.05;;;;;;;14.46;100.00;100760.44;3596343;39;20109;-63
2021/07/05 06:29:41;;;;;;;17.42;10.40;;;;;;;14.53;100.00;100760.59;3596712;39;20051;-63
2021/07/05 06:32:07;;;;;;;22.15;10.20;;;;;;;14.48;100.00;100755.69;3595090;39;20036;-63
2021/07/05 06:34:34;;;;;;;18.02;10.65;;;;;;;14.68;100.00;100764.44;3598180;39;20064;-63
2021/07/05 06:37:00;;;;;;;20.83;11.82;;;;;;;14.67;100.00;100768.13;3597406;39;20074;-63
2021/07/05 06:39:27;;;;;;;18.67;11.07;;;;;;;14.73;100.00;100765.78;3597274;39;20036;-63
2021/07/05 06:41:53;;;;;;;24.20;11.68;;;;;;;14.64;100.00;100773.88;3596862;39;20042;-64
2021/07/05 06:44:20;;;;;;;16.02;11.70;;;;;;;14.81;100.00;100769.38;3596220;39;20032;-63
2021/07/05 06:46:48;;;;;;;20.35;10.52;;;;;;;14.84;100.00;100773.59;3598019;39;20038;-63
2021/07/05 06:49:17;;;;;;;28.13;12.30;;;;;;;14.78;100.00;100764.28;3597207;39;20290;-64
2021/07/05 06:51:43;;;;;;;21.08;11.88;;;;;;;14.92;100.00;100762.78;3597332;40;20039;-62
2021/07/05 06:54:10;;;;;;;24.05;11.18;;;;;;;15.07;100.00;100766.53;3597710;39;20468;-63
2021/07/05 06:56:37;;;;;;;19.75;10.95;;;;;;;15.27;100.00;100773.47;3597370;39;20040;-63
2021/07/05 07:01:29;;;;;;;21.52;10.27;;;;;;;15.11;100.00;100782.47;3646207;22;20142;-63
2021/07/05 07:03:57;;;;;;;20.95;10.05;;;;;;;14.94;100.00;100774.28;3596863;39;20032;-63
2021/07/05 07:06:24;;;;;;;22.20;11.05;;;;;;;14.97;100.00;100783.94;3596119;39;20055;-64
2021/07/05 07:08:50;;;;;;;20.83;10.05;;;;;;;15.15;100.00;100790.09;3596954;39;20035;-64
2021/07/05 07:11:18;;;;;;;20.23;10.50;;;;;;;15.14;100.00;100780.25;3596225;39;20034;-64
2021/07/05 07:13:45;;;;;;;19.73;9.70;;;;;;;15.24;100.00;100782.81;3597230;40;20028;-64
2021/07/05 07:16:14;;;;;;;24.50;11.07;;;;;;;15.21;100.00;100788.56;3597686;39;20060;-63
2021/07/05 07:18:58;;;;;;;21.90;10.50;;;;;;;15.41;100.00;100792.66;3595387;39;20588;-64
2021/07/05 07:21:26;;;;;;;22.63;11.25;;;;;;;15.31;100.00;100794.69;3597308;39;20032;-63
2021/07/05 07:23:54;;;;;;;19.75;10.30;;;;;;;15.17;100.00;100796.19;3596970;39;20035;-64
2021/07/05 07:26:21;;;;;;;20.55;10.13;;;;;;;15.46;100.00;100791.25;3597442;39;20380;-64
2021/07/05 07:28:51;;;;;;;18.00;10.90;;;;;;;15.50;100.00;100779.94;3596475;39;20020;-63
2021/07/05 07:31:18;;;;;;;23.10;10.70;;;;;;;15.41;100.00;100780.94;3592185;39;20132;-63
2021/07/05 07:33:44;;;;;;;24.90;11.27;;;;;;;15.33;100.00;100776.38;3597616;39;20033;-63
2021/07/05 07:36:11;;;;;;;24.98;10.95;;;;;;;15.42;100.00;100783.47;3595563;39;20036;-63
2021/07/05 07:38:42;;;;;;;24.77;11.07;;;;;;;15.48;100.00;100787.38;3596552;39;20036;-63
2021/07/05 07:41:08;;;;;;;18.75;11.25;;;;;;;15.66;100.00;100781.75;3595112;39;20351;-63
2021/07/05 07:43:35;;;;;;;28.13;11.65;;;;;;;15.54;100.00;100788.56;3597097;39;20032;-63
2021/07/05 07:46:01;;;;;;;23.92;11.20;;;;;;;15.32;100.00;100784.66;3595752;39;20032;-63
2021/07/05 07:48:28;;;;;;;28.42;11.82;;;;;;;15.22;100.00;100793.81;3594903;39;20052;-62
2021/07/05 07:53:59;;;;;;;22.45;12.45;;;;;;;15.28;100.00;100792.28;3621492;22;20041;-63
2021/07/05 07:56:26;;;;;;;22.75;12.18;;;;;;;15.51;100.00;100797.03;3588063;40;20379;-63
2021/07/05 07:58:53;;;;;;;21.02;10.45;;;;;;;15.40;100.00;100796.38;3590124;40;20036;-63
2021/07/05 08:01:19;;;;;;;21.67;11.75;;;;;;;15.51;100.00;100786.19;3586569;40;20021;-63
2021/07/05 08:03:46;;;;;;;24.85;12.35;;;;;;;15.46;100.00;100792.13;3590818;40;20028;-63
2021/07/05 08:06:12;;;;;;;23.17;11.50;;;;;;;15.54;100.00;100792.13;3588497;40;20045;-63
2021/07/05 08:08:40;;;;;;;24.27;13.07;;;;;;;15.76;100.00;100798.69;3586817;40;20068;-63
2021/07/05 08:11:07;;;;;;;27.45;13.90;;;;;;;16.29;100.00;100801.84;3587529;40;20040;-62
2021/07/05 08:13:34;;;;;;;19.35;11.55;;;;;;;16.54;100.00;100792.75;3589725;40;20044;-62
2021/07/05 08:16:01;;;;;;;21.38;11.38;;;;;;;16.96;100.00;100796.94;3592705;40;20040;-62
2021/07/05 08:18:27;;;;;;;24.27;11.95;;;;;;;17.27;100.00;100790.63;3586707;40;20056;-63
2021/07/05 08:20:54;;;;;;;17.25;11.63;;;;;;;17.13;100.00;100797.69;3586628;40;20059;-62
2021/07/05 08:23:20;;;;;;;17.10;11.05;;;;;;;16.91;100.00;100793.94;3586445;40;20035;-63
2021/07/05 08:25:47;;;;;;;21.17;12.13;;;;;;;16.95;100.00;100795.28;3587215;40;20073;-63
2021/07/05 08:28:15;;;;;;;19.35;12.63;;;;;;;17.05;100.00;100803.19;3586385;40;20039;-62
2021/07/05 08:30:42;;;;;;;21.67;12.52;;;;;;;16.77;100.00;100799.09;3587434;40;20093;-62
2021/07/05 08:33:09;;;;;;;23.05;12.25;;;;;;;16.81;100.00;100795.00;3588630;40;20069;-62
2021/07/05 08:35:36;;;;;;;20.17;13.52;;;;;;;17.19;100.00;100785.25;3587751;40;20037;-62
2021/07/05 08:38:03;;;;;;;20.98;12.93;;;;;;;17.35;100.00;100785.13;3589709;40;20028;-63
2021/07/05 08:40:30;;;;;;;18.05;12.35;;;;;;;17.15;100.00;100787.47;3593575;40;20040;-62
2021/07/05 08:43:00;;;;;;;20.80;11.98;;;;;;;17.38;100.00;100790.19;3591069;40;20291;-62
2021/07/05 08:45:28;;;;;;;19.52;13.23;;;;;;;17.27;100.00;100801.50;3590339;40;20409;-62
2021/07/05 08:47:57;;;;;;;20.65;13.88;;;;;;;17.25;100.00;100788.09;3591251;40;20029;-62
2021/07/05 08:50:26;;;;;;;16.95;11.68;;;;;;;17.23;100.00;100789.31;3590718;40;20060;-62
2021/07/05 08:52:52;;;;;;;17.65;12.23;;;;;;;17.47;100.00;100799.13;3592496;39;20554;-62
2021/07/05 08:55:22;;;;;;;22.75;13.32;;;;;;;17.54;100.00;100802.81;3588177;40;20036;-62
2021/07/05 08:57:49;;;;;;;15.57;12.50;;;;;;;17.48;100.00;100798.13;3588635;39;20040;-62
2021/07/05 09:00:18;;;;;;;18.95;12.77;;;;;;;17.48;100.00;100798.97;3587859;40;20038;-61
2021/07/05 09:02:47;;;;;;;16.33;12.40;;;;;;;17.61;100.00;100797.50;3588672;40;20035;-62
2021/07/05 09:05:14;;;;;;;18.23;14.90;;;;;;;17.60;100.00;100798.53;3587606;40;20438;-62
2021/07/05 09:08:03;;;;;;;20.98;14.50;;;;;;;18.00;100.00;100799.19;3586168;40;20038;-63
2021/07/05 09:10:40;;;;;;;17.95;14.15;;;;;;;17.51;100.00;100793.16;3589074;40;20054;-64
2021/07/05 09:13:10;;;;;;;16.35;13.50;;;;;;;17.43;100.00;100798.69;3589970;40;20051;-62
2021/07/05 09:15:38;;;;;;;22.02;12.63;;;;;;;17.77;100.00;100800.06;3588314;40;20076;-62
2021/07/05 09:18:23;;;;;;;18.60;12.88;;;;;;;17.81;100.00;100795.09;3587555;40;20057;-62
2021/07/05 09:20:50;;;;;;;17.48;14.20;;;;;;;18.43;100.00;100793.06;3584610;40;20055;-62
2021/07/05 09:23:17;;;;;;;17.02;10.90;;;;;;;18.80;100.00;100805.72;3582179;40;20032;-63
2021/07/05 09:25:46;;;;;;;18.13;11.20;;;;;;;18.38;100.00;100797.19;3583890;40;20070;-62
2021/07/05 09:28:13;;;;;;;19.60;12.38;;;;;;;18.61;100.00;100796.25;3584971;39;20110;-62
2021/07/05 09:30:42;;;;;;;17.42;11.60;;;;;;;19.12;100.00;100781.72;3579162;40;20397;-62
2021/07/05 09:33:20;;;;;;;18.25;10.68;;;;;;;19.35;100.00;100791.63;3586059;40;20036;-61
2021/07/05 09:35:48;;;;;;;16.27;10.45;;;;;;;19.21;100.00;100783.31;3591519;40;20043;-62
2021/07/05 09:38:28;;;;;;;14.73;11.13;;;;;;;19.39;100.00;100771.06;3592424;40;20042;-62
2021/07/05 09:40:54;;;;;;;13.80;9.57;;;;;;;18.74;100.00;100785.50;3589530;40;20035;-63
2021/07/05 09:43:23;;;;;;;12.98;9.98;;;;;;;18.52;100.00;100778.28;3587673;40;20336;-62
2021/07/05 09:45:50;;;;;;;15.05;11.15;;;;;;;19.05;100.00;100784.41;3592444;40;20067;-63
2021/07/05 09:48:19;;;;;;;18.83;10.48;;;;;;;19.29;100.00;100776.00;3593801;40;20055;-62
2021/07/05 09:50:47;;;;;;;14.13;10.07;;;;;;;19.94;100.00;100766.69;3580192;40;20041;-62
2021/07/05 09:53:31;;;;;;;17.33;9.65;;;;;;;19.46;100.00;100771.13;3585124;39;20082;-62
2021/07/05 09:56:22;;;;;;;17.50;10.48;;;;;;;19.47;100.00;100770.94;3595778;40;20039;-62
2021/07/05 09:58:50;;;;;;;15.10;10.00;;;;;;;19.44;100.00;100763.16;3587970;40;20051;-63
2021/07/05 10:01:41;;;;;;;12.25;9.18;;;;;;;19.87;100.00;100768.53;3592773;40;20320;-62
2021/07/05 10:04:11;;;;;;;15.75;8.45;;;;;;;19.56;100.00;100772.47;3581164;40;20145;-62
2021/07/05 10:06:43;;;;;;;14.30;8.63;;;;;;;18.97;100.00;100778.22;3593449;40;20032;-62
2021/07/05 10:09:10;;;;;;;12.90;8.23;;;;;;;19.00;100.00;100775.94;3589997;40;20036;-58
2021/07/05 10:11:38;;;;;;;12.70;8.25;;;;;;;18.98;100.00;100774.47;3591104;40;20040;-59
2021/07/05 10:14:14;;;;;;;16.27;9.43;;;;;;;19.29;100.00;100770.56;3587691;40;20032;-58
2021/07/05 10:16:41;;;;;;;12.00;9.05;;;;;;;19.14;100.00;100779.66;3587130;40;20378;-62
2021/07/05 10:19:08;;;;;;;15.90;8.88;;;;;;;19.20;100.00;100778.88;3589831;40;20067;-61
2021/07/05 10:21:36;;;;;;;14.45;9.38;;;;;;;19.31;100.00;100772.06;3590987;40;20310;-62
2021/07/05 10:24:05;;;;;;;13.38;9.30;;;;;;;19.64;100.00;100776.97;3591217;40;20064;-62
2021/07/05 10:26:32;;;;;;;15.35;10.32;;;;;;;19.66;100.00;100779.50;3592143;40;20044;-63
2021/07/05 10:28:58;;;;;;;16.45;9.48;;;;;;;19.14;100.00;100787.84;3592736;40;20036;-62
2021/07/05 10:31:26;;;;;;;17.92;9.75;;;;;;;19.05;100.00;100775.38;3589734;40;20051;-62
2021/07/05 10:33:53;;;;;;;11.45;9.30;;;;;;;19.19;100.00;100771.72;3591397;40;20029;-62
2021/07/05 10:36:21;;;;;;;15.52;10.43;;;;;;;19.14;100.00;100768.75;3588192;40;20410;-61
2021/07/05 10:38:55;;;;;;;15.10;9.48;;;;;;;19.18;100.00;100772.75;3593808;40;20042;-61
2021/07/05 10:41:22;;;;;;;11.57;8.35;;;;;;;19.42;100.00;100776.16;3589322;40;20041;-62
2021/07/05 10:43:52;;;;;;;14.15;9.45;;;;;;;19.25;100.00;100776.41;3590865;40;20044;-62
2021/07/05 10:46:39;;;;;;;15.48;9.23;;;;;;;19.48;100.00;100769.91;3588110;40;20025;-62
2021/07/05 10:49:07;;;;;;;12.52;8.70;;;;;;;19.94;100.00;100768.59;3586794;40;20051;-62
2021/07/05 10:51:44;;;;;;;15.75;8.25;;;;;;;20.00;100.00;100773.25;3585964;40;20448;-62
2021/07/05 10:54:12;;;;;;;12.02;7.75;;;;;;;19.78;100.00;100770.56;3582387;40;20041;-62
2021/07/05 10:56:43;;;;;;;16.00;8.50;;;;;;;19.40;100.00;100772.75;3585908;40;20463;-62
2021/07/05 10:59:36;;;;;;;13.80;8.32;;;;;;;19.10;100.00;100775.63;3581948;40;20044;-61
2021/07/05 11:02:36;;;;;;;12.30;8.23;;;;;;;19.26;100.00;100789.00;3585204;40;20040;-62
2021/07/05 11:05:05;;;;;;;13.38;8.32;;;;;;;19.20;100.00;100776.16;3588126;40;20035;-62
2021/07/05 11:07:47;;;;;;;11.70;7.55;;;;;;;18.96;100.00;100773.81;3580164;40;20302;-62
2021/07/05 11:10:25;;;;;;;12.07;7.40;;;;;;;18.98;100.00;100769.03;3585978;40;20041;-62
2021/07/05 11:13:00;;;;;;;18.67;7.68;;;;;;;18.94;100.00;100773.16;3586400;40;20021;-61
2021/07/05 11:15:57;;;;;;;13.00;7.63;;;;;;;19.21;100.00;100766.94;3586674;40;20367;-62
2021/07/05 11:19:06;;;;;;;11.10;8.25;;;;;;;19.42;100.00;100768.81;3552732;40;20054;-62
2021/07/05 11:21:55;;;;;;;10.18;7.20;;;;;;;19.84;100.00;100758.00;3585485;40;20119;-62